sensor_id;sensor_type;location;lat;lon;timestamp;pressure;altitude;pressure_sealevel;temperature;humidity
9855;BME280;4966;48.112;9.282;2023-10-08T00:01:49;95696.50;;;10.38;78.02
9855;BME280;4966;48.112;9.282;2023-10-08T00:04:16;95687.28;;;10.26;78.10
9855;BME280;4966;48.112;9.282;2023-10-08T00:06:44;95682.75;;;10.35;77.72
9855;BME280;4966;48.112;9.282;2023-10-08T00:09:10;95693.47;;;10.17;78.01
9855;BME280;4966;48.112;9.282;2023-10-08T00:11:39;95698.66;;;10.05;78.92
9855;BME280;4966;48.112;9.282;2023-10-08T00:14:05;95688.16;;;10.12;78.55
9855;BME280;4966;48.112;9.282;2023-10-08T00:16:36;95693.44;;;10.09;78.73
9855;BME280;4966;48.112;9.282;2023-10-08T00:19:07;95689.03;;;10.21;77.84
9855;BME280;4966;48.112;9.282;2023-10-08T00:21:35;95691.13;;;10.02;78.32
9855;BME280;4966;48.112;9.282;2023-10-08T00:24:03;95686.56;;;10.11;78.08
9855;BME280;4966;48.112;9.282;2023-10-08T00:26:32;95695.50;;;10.12;78.11
9855;BME280;4966;48.112;9.282;2023-10-08T00:29:04;95688.41;;;10.02;78.05
9855;BME280;4966;48.112;9.282;2023-10-08T00:31:41;95699.22;;;9.93;78.15
9855;BME280;4966;48.112;9.282;2023-10-08T00:34:10;95688.72;;;10.00;77.92
9855;BME280;4966;48.112;9.282;2023-10-08T00:36:46;95689.34;;;9.97;77.45
9855;BME280;4966;48.112;9.282;2023-10-08T00:39:13;95684.41;;;9.99;76.65
9855;BME280;4966;48.112;9.282;2023-10-08T00:41:43;95691.19;;;9.88;76.78
9855;BME280;4966;48.112;9.282;2023-10-08T00:44:09;95693.69;;;9.98;76.45
9855;BME280;4966;48.112;9.282;2023-10-08T00:46:47;95691.44;;;9.78;76.98
9855;BME280;4966;48.112;9.282;2023-10-08T00:49:20;95689.56;;;9.65;77.79
9855;BME280;4966;48.112;9.282;2023-10-08T00:51:47;95680.56;;;9.78;77.54
9855;BME280;4966;48.112;9.282;2023-10-08T00:54:14;95675.31;;;9.82;76.97
9855;BME280;4966;48.112;9.282;2023-10-08T00:56:46;95675.16;;;9.42;79.06
9855;BME280;4966;48.112;9.282;2023-10-08T00:59:14;95677.06;;;9.41;78.98
9855;BME280;4966;48.112;9.282;2023-10-08T01:01:42;95667.19;;;9.45;78.96
9855;BME280;4966;48.112;9.282;2023-10-08T01:04:15;95663.13;;;9.56;78.75
9855;BME280;4966;48.112;9.282;2023-10-08T01:06:41;95665.09;;;9.65;78.59
9855;BME280;4966;48.112;9.282;2023-10-08T01:09:06;95661.41;;;9.61;78.80
9855;BME280;4966;48.112;9.282;2023-10-08T01:12:09;95655.66;;;9.62;78.66
9855;BME280;4966;48.112;9.282;2023-10-08T01:14:38;95661.16;;;9.48;nan
9855;BME280;4966;48.112;9.282;2023-10-08T01:17:07;95658.91;;;9.50;79.56
9855;BME280;4966;48.112;9.282;2023-10-08T01:19:32;95659.78;;;9.59;79.61
9855;BME280;4966;48.112;9.282;2023-10-08T01:22:04;95662.84;;;9.80;78.45
9855;BME280;4966;48.112;9.282;2023-10-08T01:24:31;95663.97;;;9.79;77.75
9855;BME280;4966;48.112;9.282;2023-10-08T01:26:59;95658.25;;;9.67;78.65
9855;BME280;4966;48.112;9.282;2023-10-08T01:29:25;95657.47;;;9.67;78.91
9855;BME280;4966;48.112;9.282;2023-10-08T01:31:53;95651.91;;;9.72;78.72
9855;BME280;4966;48.112;9.282;2023-10-08T01:34:18;95650.75;;;9.87;78.57
9855;BME280;4966;48.112;9.282;2023-10-08T01:36:51;95649.31;;;9.89;78.66
9855;BME280;4966;48.112;9.282;2023-10-08T01:39:16;95647.84;;;9.83;78.75
9855;BME280;4966;48.112;9.282;2023-10-08T01:41:43;95643.25;;;9.92;78.80
9855;BME280;4966;48.112;9.282;2023-10-08T01:44:09;95639.31;;;9.98;78.79
9855;BME280;4966;48.112;9.282;2023-10-08T01:46:35;95645.41;;;10.04;78.75
9855;BME280;4966;48.112;9.282;2023-10-08T01:49:01;95644.34;;;10.14;77.96
9855;BME280;4966;48.112;9.282;2023-10-08T01:51:33;95639.22;;;10.12;77.75
9855;BME280;4966;48.112;9.282;2023-10-08T01:54:14;95637.69;;;9.97;78.37
9855;BME280;4966;48.112;9.282;2023-10-08T01:56:41;95641.56;;;10.05;78.38
9855;BME280;4966;48.112;9.282;2023-10-08T01:59:10;95638.78;;;10.19;78.01
9855;BME280;4966;48.112;9.282;2023-10-08T02:01:38;95639.13;;;10.26;76.98
9855;BME280;4966;48.112;9.282;2023-10-08T02:04:05;95631.50;;;10.28;76.64
9855;BME280;4966;48.112;9.282;2023-10-08T02:06:33;95638.63;;;9.93;78.00
9855;BME280;4966;48.112;9.282;2023-10-08T02:08:58;95635.28;;;9.96;77.80
9855;BME280;4966;48.112;9.282;2023-10-08T02:11:24;95640.69;;;9.87;78.06
9855;BME280;4966;48.112;9.282;2023-10-08T02:13:52;95639.38;;;9.85;78.25
9855;BME280;4966;48.112;9.282;2023-10-08T02:16:18;95629.44;;;9.80;78.46
9855;BME280;4966;48.112;9.282;2023-10-08T02:18:44;95632.09;;;9.94;77.78
9855;BME280;4966;48.112;9.282;2023-10-08T02:21:09;95633.50;;;9.69;78.63
9855;BME280;4966;48.112;9.282;2023-10-08T02:23:35;95639.06;;;9.64;78.85
9855;BME280;4966;48.112;9.282;2023-10-08T02:26:01;95631.84;;;9.59;79.14
9855;BME280;4966;48.112;9.282;2023-10-08T02:28:27;95630.53;;;9.56;79.42
9855;BME280;4966;48.112;9.282;2023-10-08T02:30:52;95626.59;;;9.63;79.25
9855;BME280;4966;48.112;9.282;2023-10-08T02:33:18;95625.09;;;9.79;77.85
9855;BME280;4966;48.112;9.282;2023-10-08T02:35:44;95632.88;;;9.72;77.88
9855;BME280;4966;48.112;9.282;2023-10-08T02:38:16;95628.81;;;9.61;78.36
9855;BME280;4966;48.112;9.282;2023-10-08T02:40:42;95619.19;;;9.54;78.70
9855;BME280;4966;48.112;9.282;2023-10-08T02:43:14;95623.88;;;9.63;78.52
9855;BME280;4966;48.112;9.282;2023-10-08T02:45:41;95615.28;;;9.47;78.20
9855;BME280;4966;48.112;9.282;2023-10-08T02:48:07;95616.22;;;9.42;78.77
9855;BME280;4966;48.112;9.282;2023-10-08T02:50:44;95612.56;;;9.47;78.42
9855;BME280;4966;48.112;9.282;2023-10-08T02:53:11;95616.72;;;9.44;78.63
9855;BME280;4966;48.112;9.282;2023-10-08T02:55:40;95614.28;;;9.43;78.95
9855;BME280;4966;48.112;9.282;2023-10-08T02:58:12;95613.94;;;9.58;78.47
9855;BME280;4966;48.112;9.282;2023-10-08T03:00:43;95621.03;;;9.45;78.75
9855;BME280;4966;48.112;9.282;2023-10-08T03:03:08;95617.75;;;9.34;79.16
9855;BME280;4966;48.112;9.282;2023-10-08T03:05:47;95619.44;;;9.44;78.94
9855;BME280;4966;48.112;9.282;2023-10-08T03:08:14;95610.53;;;9.30;79.73
9855;BME280;4966;48.112;9.282;2023-10-08T03:10:44;95612.06;;;9.45;79.40
9855;BME280;4966;48.112;9.282;2023-10-08T03:13:10;95606.47;;;9.41;78.95
9855;BME280;4966;48.112;9.282;2023-10-08T03:15:38;95604.97;;;9.35;79.28
9855;BME280;4966;48.112;9.282;2023-10-08T03:18:06;95609.19;;;9.41;79.31
9855;BME280;4966;48.112;9.282;2023-10-08T03:20:38;95606.47;;;9.41;78.68
9855;BME280;4966;48.112;9.282;2023-10-08T03:23:17;95607.94;;;9.25;79.53
9855;BME280;4966;48.112;9.282;2023-10-08T03:25:53;95609.34;;;9.22;79.68
9855;BME280;4966;48.112;9.282;2023-10-08T03:28:29;95597.47;;;9.18;79.57
9855;BME280;4966;48.112;9.282;2023-10-08T03:30:59;95603.19;;;9.30;78.74
9855;BME280;4966;48.112;9.282;2023-10-08T03:33:34;95607.81;;;9.30;78.74
9855;BME280;4966;48.112;9.282;2023-10-08T03:36:01;95606.88;;;9.34;78.29
9855;BME280;4966;48.112;9.282;2023-10-08T03:38:35;95613.94;;;9.22;78.65
9855;BME280;4966;48.112;9.282;2023-10-08T03:41:10;95602.00;;;9.23;78.47
9855;BME280;4966;48.112;9.282;2023-10-08T03:43:42;95610.38;;;9.12;78.87
9855;BME280;4966;48.112;9.282;2023-10-08T03:46:26;95605.81;;;9.22;78.35
9855;BME280;4966;48.112;9.282;2023-10-08T03:48:52;95602.66;;;9.28;77.42
9855;BME280;4966;48.112;9.282;2023-10-08T03:51:18;95607.72;;;9.21;77.78
9855;BME280;4966;48.112;9.282;2023-10-08T03:53:47;95605.63;;;9.18;78.00
9855;BME280;4966;48.112;9.282;2023-10-08T03:56:31;95604.13;;;9.12;78.35
9855;BME280;4966;48.112;9.282;2023-10-08T03:59:00;95599.03;;;9.10;78.68
9855;BME280;4966;48.112;9.282;2023-10-08T04:01:38;95608.75;;;9.11;78.44
9855;BME280;4966;48.112;9.282;2023-10-08T04:04:05;95592.94;;;8.91;79.74
9855;BME280;4966;48.112;9.282;2023-10-08T04:06:31;95599.53;;;8.99;79.49
9855;BME280;4966;48.112;9.282;2023-10-08T04:09:04;95595.50;;;9.10;79.18
9855;BME280;4966;48.112;9.282;2023-10-08T04:11:42;95591.81;;;9.28;78.59
9855;BME280;4966;48.112;9.282;2023-10-08T04:14:20;95595.06;;;9.16;78.79
9855;BME280;4966;48.112;9.282;2023-10-08T04:16:45;95597.47;;;9.18;78.99
9855;BME280;4966;48.112;9.282;2023-10-08T04:19:12;95594.53;;;9.28;78.58
9855;BME280;4966;48.112;9.282;2023-10-08T04:21:38;95585.34;;;9.38;78.10
9855;BME280;4966;48.112;9.282;2023-10-08T04:24:06;95583.53;;;9.33;77.68
9855;BME280;4966;48.112;9.282;2023-10-08T04:26:34;95593.09;;;9.08;78.91
9855;BME280;4966;48.112;9.282;2023-10-08T04:29:01;95589.06;;;9.06;79.46
9855;BME280;4966;48.112;9.282;2023-10-08T04:31:30;95588.47;;;9.09;79.40
9855;BME280;4966;48.112;9.282;2023-10-08T04:34:06;95586.34;;;9.20;79.03
9855;BME280;4966;48.112;9.282;2023-10-08T04:36:48;95593.72;;;9.28;78.31
9855;BME280;4966;48.112;9.282;2023-10-08T04:39:23;95587.09;;;9.34;77.87
9855;BME280;4966;48.112;9.282;2023-10-08T04:41:56;95583.91;;;9.18;78.05
9855;BME280;4966;48.112;9.282;2023-10-08T04:44:24;95579.41;;;9.13;78.04
9855;BME280;4966;48.112;9.282;2023-10-08T04:46:51;95585.56;;;9.05;78.63
9855;BME280;4966;48.112;9.282;2023-10-08T04:49:18;95580.47;;;8.90;79.53
9855;BME280;4966;48.112;9.282;2023-10-08T04:51:58;95572.81;;;8.92;79.09
9855;BME280;4966;48.112;9.282;2023-10-08T04:54:28;95572.94;;;8.87;79.92
9855;BME280;4966;48.112;9.282;2023-10-08T04:56:58;95585.22;;;8.84;80.37
9855;BME280;4966;48.112;9.282;2023-10-08T04:59:25;95581.88;;;8.87;80.03
9855;BME280;4966;48.112;9.282;2023-10-08T05:02:01;95577.63;;;8.95;79.89
9855;BME280;4966;48.112;9.282;2023-10-08T05:04:52;95577.75;;;8.90;79.90
9855;BME280;4966;48.112;9.282;2023-10-08T05:07:18;95580.56;;;8.85;80.03
9855;BME280;4966;48.112;9.282;2023-10-08T05:09:49;95590.31;;;8.86;80.18
9855;BME280;4966;48.112;9.282;2023-10-08T05:12:36;95587.16;;;9.06;79.09
9855;BME280;4966;48.112;9.282;2023-10-08T05:15:26;95594.03;;;8.90;79.58
9855;BME280;4966;48.112;9.282;2023-10-08T05:18:12;95584.19;;;8.94;79.66
9855;BME280;4966;48.112;9.282;2023-10-08T05:20:38;95591.13;;;8.86;79.86
9855;BME280;4966;48.112;9.282;2023-10-08T05:23:25;95586.13;;;8.80;79.95
9855;BME280;4966;48.112;9.282;2023-10-08T05:25:54;95592.94;;;8.91;79.88
9855;BME280;4966;48.112;9.282;2023-10-08T05:28:23;95585.66;;;9.00;78.78
9855;BME280;4966;48.112;9.282;2023-10-08T05:30:51;95592.13;;;8.90;78.62
9855;BME280;4966;48.112;9.282;2023-10-08T05:33:35;95587.13;;;8.84;78.96
9855;BME280;4966;48.112;9.282;2023-10-08T05:36:19;95596.84;;;8.99;77.77
9855;BME280;4966;48.112;9.282;2023-10-08T05:38:53;95599.66;;;8.93;77.76
9855;BME280;4966;48.112;9.282;2023-10-08T05:41:37;95592.31;;;8.94;78.23
9855;BME280;4966;48.112;9.282;2023-10-08T05:44:16;95598.94;;;8.88;78.32
9855;BME280;4966;48.112;9.282;2023-10-08T05:46:44;95602.09;;;8.81;78.66
9855;BME280;4966;48.112;9.282;2023-10-08T05:49:37;95596.34;;;8.83;78.85
9855;BME280;4966;48.112;9.282;2023-10-08T05:52:18;95602.56;;;8.83;78.64
9855;BME280;4966;48.112;9.282;2023-10-08T05:55:15;95601.59;;;8.79;78.97
9855;BME280;4966;48.112;9.282;2023-10-08T05:57:48;95604.91;;;8.76;79.21
9855;BME280;4966;48.112;9.282;2023-10-08T06:00:17;95599.56;;;8.85;79.41
9855;BME280;4966;48.112;9.282;2023-10-08T06:03:03;95607.47;;;8.95;79.29
9855;BME280;4966;48.112;9.282;2023-10-08T06:05:57;95618.19;;;9.14;77.10
9855;BME280;4966;48.112;9.282;2023-10-08T06:08:42;95616.19;;;9.20;76.35
9855;BME280;4966;48.112;9.282;2023-10-08T06:11:26;95625.25;;;9.15;76.63
9855;BME280;4966;48.112;9.282;2023-10-08T06:14:11;95626.03;;;9.15;76.89
9855;BME280;4966;48.112;9.282;2023-10-08T06:16:43;95628.16;;;9.19;76.80
9855;BME280;4966;48.112;9.282;2023-10-08T06:19:14;95631.66;;;9.19;77.17
9855;BME280;4966;48.112;9.282;2023-10-08T06:21:42;95636.63;;;9.40;76.56
9855;BME280;4966;48.112;9.282;2023-10-08T06:24:09;95635.75;;;9.30;76.91
9855;BME280;4966;48.112;9.282;2023-10-08T06:26:43;95636.34;;;9.41;77.17
9855;BME280;4966;48.112;9.282;2023-10-08T06:29:14;95635.31;;;9.51;77.18
9855;BME280;4966;48.112;9.282;2023-10-08T06:31:53;95645.25;;;9.55;77.13
9855;BME280;4966;48.112;9.282;2023-10-08T06:34:21;95650.00;;;9.72;76.89
9855;BME280;4966;48.112;9.282;2023-10-08T06:36:47;95652.03;;;9.89;76.35
9855;BME280;4966;48.112;9.282;2023-10-08T06:39:13;95654.44;;;9.91;76.58
9855;BME280;4966;48.112;9.282;2023-10-08T06:41:44;95652.81;;;10.12;76.10
9855;BME280;4966;48.112;9.282;2023-10-08T06:44:11;95663.38;;;10.36;74.94
9855;BME280;4966;48.112;9.282;2023-10-08T06:46:39;95663.13;;;10.47;75.22
9855;BME280;4966;48.112;9.282;2023-10-08T06:49:07;95666.56;;;10.70;74.86
9855;BME280;4966;48.112;9.282;2023-10-08T06:51:38;95664.38;;;10.89;73.78
9855;BME280;4966;48.112;9.282;2023-10-08T06:54:03;95660.56;;;10.99;73.66
9855;BME280;4966;48.112;9.282;2023-10-08T06:56:29;95668.97;;;11.28;73.52
9855;BME280;4966;48.112;9.282;2023-10-08T06:58:56;95670.44;;;11.43;72.95
9855;BME280;4966;48.112;9.282;2023-10-08T07:01:24;95670.78;;;11.77;72.19
9855;BME280;4966;48.112;9.282;2023-10-08T07:04:05;95678.31;;;12.15;70.71
9855;BME280;4966;48.112;9.282;2023-10-08T07:06:34;95674.16;;;12.17;71.03
9855;BME280;4966;48.112;9.282;2023-10-08T07:09:03;95670.63;;;12.17;70.72
9855;BME280;4966;48.112;9.282;2023-10-08T07:11:32;95682.97;;;12.14;71.44
9855;BME280;4966;48.112;9.282;2023-10-08T07:14:03;95682.47;;;12.29;71.44
9855;BME280;4966;48.112;9.282;2023-10-08T07:16:30;95684.34;;;12.38;71.49
9855;BME280;4966;48.112;9.282;2023-10-08T07:18:55;95684.09;;;12.22;71.51
9855;BME280;4966;48.112;9.282;2023-10-08T07:21:27;95676.34;;;12.41;70.55
9855;BME280;4966;48.112;9.282;2023-10-08T07:24:04;95680.47;;;12.94;69.90
9855;BME280;4966;48.112;9.282;2023-10-08T07:26:34;95687.59;;;13.16;68.45
9855;BME280;4966;48.112;9.282;2023-10-08T07:29:06;95676.88;;;13.62;66.69
9855;BME280;4966;48.112;9.282;2023-10-08T07:31:36;95679.34;;;13.55;68.22
9855;BME280;4966;48.112;9.282;2023-10-08T07:34:02;95676.75;;;14.00;66.38
9855;BME280;4966;48.112;9.282;2023-10-08T07:36:50;95673.31;;;14.24;65.77
9855;BME280;4966;48.112;9.282;2023-10-08T07:39:17;95674.63;;;14.06;66.82
9855;BME280;4966;48.112;9.282;2023-10-08T07:42:05;95668.50;;;14.21;65.37
9855;BME280;4966;48.112;9.282;2023-10-08T07:44:32;95675.88;;;14.63;63.24
9855;BME280;4966;48.112;9.282;2023-10-08T07:47:00;95675.44;;;14.98;64.22
9855;BME280;4966;48.112;9.282;2023-10-08T07:49:27;95679.31;;;15.21;64.40
9855;BME280;4966;48.112;9.282;2023-10-08T07:51:56;95674.97;;;15.45;63.32
9855;BME280;4966;48.112;9.282;2023-10-08T07:54:24;95669.59;;;15.36;64.46
9855;BME280;4966;48.112;9.282;2023-10-08T07:56:53;95676.41;;;15.67;63.20
9855;BME280;4966;48.112;9.282;2023-10-08T07:59:37;95670.94;;;15.79;62.78
9855;BME280;4966;48.112;9.282;2023-10-08T08:02:25;95677.25;;;16.08;61.89
9855;BME280;4966;48.112;9.282;2023-10-08T08:04:53;95675.69;;;16.23;59.84
9855;BME280;4966;48.112;9.282;2023-10-08T08:07:19;95671.00;;;16.23;58.14
9855;BME280;4966;48.112;9.282;2023-10-08T08:09:46;95673.78;;;16.39;57.86
9855;BME280;4966;48.112;9.282;2023-10-08T08:12:18;95676.41;;;16.20;58.03
9855;BME280;4966;48.112;9.282;2023-10-08T08:14:45;95677.56;;;16.63;57.91
9855;BME280;4966;48.112;9.282;2023-10-08T08:17:10;95675.41;;;16.56;59.13
9855;BME280;4966;48.112;9.282;2023-10-08T08:19:46;95676.88;;;16.97;58.86
9855;BME280;4966;48.112;9.282;2023-10-08T08:22:19;95679.81;;;17.05;59.69
9855;BME280;4966;48.112;9.282;2023-10-08T08:24:52;95676.00;;;17.09;55.63
9855;BME280;4966;48.112;9.282;2023-10-08T08:27:21;95671.47;;;17.33;57.27
9855;BME280;4966;48.112;9.282;2023-10-08T08:29:51;95683.63;;;17.32;53.29
9855;BME280;4966;48.112;9.282;2023-10-08T08:32:21;95681.06;;;17.39;53.76
9855;BME280;4966;48.112;9.282;2023-10-08T08:34:47;95673.59;;;17.39;53.62
9855;BME280;4966;48.112;9.282;2023-10-08T08:37:19;95679.56;;;16.94;54.63
9855;BME280;4966;48.112;9.282;2023-10-08T08:39:48;95670.69;;;17.16;55.62
9855;BME280;4966;48.112;9.282;2023-10-08T08:42:14;95675.31;;;17.12;54.62
9855;BME280;4966;48.112;9.282;2023-10-08T08:44:43;95667.84;;;17.13;54.97
9855;BME280;4966;48.112;9.282;2023-10-08T08:47:14;95675.50;;;17.19;54.63
9855;BME280;4966;48.112;9.282;2023-10-08T08:49:43;95670.13;;;17.42;54.22
9855;BME280;4966;48.112;9.282;2023-10-08T08:52:08;95675.97;;;17.76;54.12
9855;BME280;4966;48.112;9.282;2023-10-08T08:54:34;95675.47;;;18.06;52.48
9855;BME280;4966;48.112;9.282;2023-10-08T08:57:03;95674.97;;;18.39;51.99
9855;BME280;4966;48.112;9.282;2023-10-08T08:59:30;95670.75;;;18.45;51.63
9855;BME280;4966;48.112;9.282;2023-10-08T09:01:59;95680.38;;;18.55;51.70
9855;BME280;4966;48.112;9.282;2023-10-08T09:04:31;95675.09;;;18.46;51.46
9855;BME280;4966;48.112;9.282;2023-10-08T09:06:58;95674.69;;;18.67;51.19
9855;BME280;4966;48.112;9.282;2023-10-08T09:09:33;95671.38;;;18.78;50.99
9855;BME280;4966;48.112;9.282;2023-10-08T09:11:59;95669.56;;;18.66;52.00
9855;BME280;4966;48.112;9.282;2023-10-08T09:14:27;95670.69;;;18.65;51.86
9855;BME280;4966;48.112;9.282;2023-10-08T09:16:53;95671.81;;;18.80;51.83
9855;BME280;4966;48.112;9.282;2023-10-08T09:19:20;95681.06;;;18.71;51.70
9855;BME280;4966;48.112;9.282;2023-10-08T09:22:07;95686.09;;;18.66;52.19
9855;BME280;4966;48.112;9.282;2023-10-08T09:24:40;95692.03;;;18.87;52.55
9855;BME280;4966;48.112;9.282;2023-10-08T09:27:09;95680.50;;;19.05;51.62
9855;BME280;4966;48.112;9.282;2023-10-08T09:29:39;95680.19;;;19.33;50.88
9855;BME280;4966;48.112;9.282;2023-10-08T09:32:07;95680.34;;;19.44;50.69
9855;BME280;4966;48.112;9.282;2023-10-08T09:34:33;95682.78;;;19.49;51.30
9855;BME280;4966;48.112;9.282;2023-10-08T09:37:00;95686.31;;;19.72;50.60
9855;BME280;4966;48.112;9.282;2023-10-08T09:39:27;95683.84;;;19.94;50.65
9855;BME280;4966;48.112;9.282;2023-10-08T09:41:57;95683.41;;;19.65;51.25
9855;BME280;4966;48.112;9.282;2023-10-08T09:44:23;95681.38;;;19.85;50.48
9855;BME280;4966;48.112;9.282;2023-10-08T09:46:54;95687.00;;;19.92;50.72
9855;BME280;4966;48.112;9.282;2023-10-08T09:49:49;95679.00;;;20.14;51.00
9855;BME280;4966;48.112;9.282;2023-10-08T09:52:23;95691.97;;;20.10;51.00
9855;BME280;4966;48.112;9.282;2023-10-08T09:54:54;95685.66;;;20.43;51.09
9855;BME280;4966;48.112;9.282;2023-10-08T09:57:22;95688.69;;;20.65;50.34
9855;BME280;4966;48.112;9.282;2023-10-08T09:59:49;95691.28;;;20.88;50.84
9855;BME280;4966;48.112;9.282;2023-10-08T10:02:16;95688.28;;;21.03;49.87
9855;BME280;4966;48.112;9.282;2023-10-08T10:04:43;95691.31;;;21.32;49.20
9855;BME280;4966;48.112;9.282;2023-10-08T10:07:14;95691.34;;;20.91;49.23
9855;BME280;4966;48.112;9.282;2023-10-08T10:09:54;95695.00;;;21.47;48.71
9855;BME280;4966;48.112;9.282;2023-10-08T10:12:25;95701.97;;;21.30;49.46
9855;BME280;4966;48.112;9.282;2023-10-08T10:14:53;95701.56;;;21.28;50.31
9855;BME280;4966;48.112;9.282;2023-10-08T10:17:22;95702.81;;;20.93;50.40
9855;BME280;4966;48.112;9.282;2023-10-08T10:20:02;95703.81;;;21.15;50.79
9855;BME280;4966;48.112;9.282;2023-10-08T10:24:54;95704.41;;;21.39;49.75
9855;BME280;4966;48.112;9.282;2023-10-08T10:27:21;95710.47;;;21.48;50.32
9855;BME280;4966;48.112;9.282;2023-10-08T10:29:47;95706.53;;;21.53;51.01
9855;BME280;4966;48.112;9.282;2023-10-08T10:32:14;95705.88;;;21.22;50.40
9855;BME280;4966;48.112;9.282;2023-10-08T10:34:41;95704.63;;;21.60;49.78
9855;BME280;4966;48.112;9.282;2023-10-08T10:37:07;95698.50;;;21.92;49.77
9855;BME280;4966;48.112;9.282;2023-10-08T10:39:57;95705.09;;;21.70;50.43
9855;BME280;4966;48.112;9.282;2023-10-08T10:42:26;95702.47;;;21.95;49.15
9855;BME280;4966;48.112;9.282;2023-10-08T10:44:54;95698.97;;;22.08;50.09
9855;BME280;4966;48.112;9.282;2023-10-08T10:47:21;95696.88;;;22.68;48.62
9855;BME280;4966;48.112;9.282;2023-10-08T10:49:50;95695.03;;;23.04;48.36
9855;BME280;4966;48.112;9.282;2023-10-08T10:52:16;95695.03;;;23.22;47.74
9855;BME280;4966;48.112;9.282;2023-10-08T10:55:03;95708.53;;;23.38;48.39
9855;BME280;4966;48.112;9.282;2023-10-08T10:57:50;95695.84;;;23.84;46.69
9855;BME280;4966;48.112;9.282;2023-10-08T11:00:24;95697.41;;;23.13;47.21
9855;BME280;4966;48.112;9.282;2023-10-08T11:03:00;95692.28;;;23.76;45.76
9855;BME280;4966;48.112;9.282;2023-10-08T11:05:36;95681.97;;;23.30;47.77
9855;BME280;4966;48.112;9.282;2023-10-08T11:08:05;95678.72;;;24.07;47.06
9855;BME280;4966;48.112;9.282;2023-10-08T11:10:32;95671.88;;;24.29;47.44
9855;BME280;4966;48.112;9.282;2023-10-08T11:12:58;95672.41;;;23.63;47.16
9855;BME280;4966;48.112;9.282;2023-10-08T11:15:28;95669.22;;;23.86;47.92
9855;BME280;4966;48.112;9.282;2023-10-08T11:18:07;95667.19;;;24.12;47.02
9855;BME280;4966;48.112;9.282;2023-10-08T11:20:34;95672.75;;;24.01;46.73
9855;BME280;4966;48.112;9.282;2023-10-08T11:23:05;95657.16;;;24.39;46.49
9855;BME280;4966;48.112;9.282;2023-10-08T11:25:57;95667.06;;;24.55;46.54
9855;BME280;4966;48.112;9.282;2023-10-08T11:28:37;95665.81;;;24.67;46.12
9855;BME280;4966;48.112;9.282;2023-10-08T11:31:10;95660.91;;;24.85;45.28
9855;BME280;4966;48.112;9.282;2023-10-08T11:33:44;95662.03;;;24.98;45.53
9855;BME280;4966;48.112;9.282;2023-10-08T11:36:22;95662.31;;;25.15;45.61
9855;BME280;4966;48.112;9.282;2023-10-08T11:38:55;95654.50;;;25.47;44.50
9855;BME280;4966;48.112;9.282;2023-10-08T11:41:27;95644.56;;;25.50;44.78
9855;BME280;4966;48.112;9.282;2023-10-08T11:43:54;95658.50;;;25.50;44.60
9855;BME280;4966;48.112;9.282;2023-10-08T11:46:27;95649.13;;;25.71;44.32
9855;BME280;4966;48.112;9.282;2023-10-08T11:48:59;95644.66;;;25.81;44.25
9855;BME280;4966;48.112;9.282;2023-10-08T11:51:31;95653.50;;;26.14;44.16
9855;BME280;4966;48.112;9.282;2023-10-08T11:53:57;95643.66;;;26.36;43.87
9855;BME280;4966;48.112;9.282;2023-10-08T11:56:24;95647.66;;;26.35;43.84
9855;BME280;4966;48.112;9.282;2023-10-08T11:58:49;95640.69;;;26.50;44.03
9855;BME280;4966;48.112;9.282;2023-10-08T12:01:16;95638.94;;;26.64;43.47
9855;BME280;4966;48.112;9.282;2023-10-08T12:03:43;95630.75;;;26.80;43.53
9855;BME280;4966;48.112;9.282;2023-10-08T12:06:13;95632.84;;;27.00;41.98
9855;BME280;4966;48.112;9.282;2023-10-08T12:08:42;95631.31;;;26.95;42.92
9855;BME280;4966;48.112;9.282;2023-10-08T12:11:10;95621.59;;;26.49;44.24
9855;BME280;4966;48.112;9.282;2023-10-08T12:13:37;95637.53;;;26.18;43.26
9855;BME280;4966;48.112;9.282;2023-10-08T12:16:03;95632.31;;;26.20;43.38
9855;BME280;4966;48.112;9.282;2023-10-08T12:18:32;95623.84;;;25.93;43.81
9855;BME280;4966;48.112;9.282;2023-10-08T12:21:04;95623.78;;;26.65;43.68
9855;BME280;4966;48.112;9.282;2023-10-08T12:23:30;95619.47;;;26.87;43.15
9855;BME280;4966;48.112;9.282;2023-10-08T12:25:58;95613.63;;;27.32;41.92
9855;BME280;4966;48.112;9.282;2023-10-08T12:28:26;95616.75;;;27.82;42.00
9855;BME280;4966;48.112;9.282;2023-10-08T12:30:53;95614.41;;;27.56;41.24
9855;BME280;4966;48.112;9.282;2023-10-08T12:33:22;95622.41;;;28.02;40.29
9855;BME280;4966;48.112;9.282;2023-10-08T12:35:50;95621.25;;;28.39;40.25
9855;BME280;4966;48.112;9.282;2023-10-08T12:38:21;95625.69;;;28.76;39.79
9855;BME280;4966;48.112;9.282;2023-10-08T12:40:48;95618.78;;;28.81;38.13
9855;BME280;4966;48.112;9.282;2023-10-08T12:43:21;95622.47;;;28.94;38.14
9855;BME280;4966;48.112;9.282;2023-10-08T12:45:48;95612.19;;;28.71;38.83
9855;BME280;4966;48.112;9.282;2023-10-08T12:48:25;95617.16;;;28.24;40.12
9855;BME280;4966;48.112;9.282;2023-10-08T12:50:52;95619.47;;;28.49;38.72
9855;BME280;4966;48.112;9.282;2023-10-08T12:53:25;95613.44;;;28.87;39.19
9855;BME280;4966;48.112;9.282;2023-10-08T12:56:02;95612.91;;;29.12;39.22
9855;BME280;4966;48.112;9.282;2023-10-08T12:58:32;95612.03;;;28.78;37.17
9855;BME280;4966;48.112;9.282;2023-10-08T13:01:04;95603.50;;;29.35;36.84
9855;BME280;4966;48.112;9.282;2023-10-08T13:03:32;95610.78;;;29.32;37.41
9855;BME280;4966;48.112;9.282;2023-10-08T13:05:58;95608.09;;;29.29;37.02
9855;BME280;4966;48.112;9.282;2023-10-08T13:08:30;95595.94;;;28.99;37.90
9855;BME280;4966;48.112;9.282;2023-10-08T13:11:00;95603.75;;;29.57;37.00
9855;BME280;4966;48.112;9.282;2023-10-08T13:13:29;95604.38;;;29.64;37.92
9855;BME280;4966;48.112;9.282;2023-10-08T13:15:55;95599.69;;;29.90;35.91
9855;BME280;4966;48.112;9.282;2023-10-08T13:18:24;95604.03;;;30.08;36.69
9855;BME280;4966;48.112;9.282;2023-10-08T13:20:53;95602.75;;;29.96;35.92
9855;BME280;4966;48.112;9.282;2023-10-08T13:23:19;95594.75;;;29.95;35.73
9855;BME280;4966;48.112;9.282;2023-10-08T13:25:46;95601.94;;;30.25;35.77
9855;BME280;4966;48.112;9.282;2023-10-08T13:28:22;95600.81;;;30.22;35.10
9855;BME280;4966;48.112;9.282;2023-10-08T13:30:49;95598.72;;;30.26;35.33
9855;BME280;4966;48.112;9.282;2023-10-08T13:33:21;95599.53;;;30.27;35.08
9855;BME280;4966;48.112;9.282;2023-10-08T13:35:48;95599.97;;;29.80;35.71
9855;BME280;4966;48.112;9.282;2023-10-08T13:38:17;95593.66;;;29.76;36.30
9855;BME280;4966;48.112;9.282;2023-10-08T13:40:47;95593.47;;;30.12;35.72
9855;BME280;4966;48.112;9.282;2023-10-08T13:43:35;95586.94;;;30.02;35.68
9855;BME280;4966;48.112;9.282;2023-10-08T13:46:05;95595.38;;;29.24;35.96
9855;BME280;4966;48.112;9.282;2023-10-08T13:48:35;95587.63;;;28.95;37.39
9855;BME280;4966;48.112;9.282;2023-10-08T13:51:02;95584.31;;;27.88;37.43